Time,TemperatureF,DewpointF,PressureIn,WindDirection,WindDirectionDegrees,WindSpeedMPH,WindSpeedGustMPH,Humidity,HourlyPrecipIn,Conditions,Clouds,dailyrainin,SoftwareType,DateUTC
2013-08-06 08:24:00,68.1,64.1,30.03,SSE,158,0.0,0.0,87,0.00,,,0.00,WUHU216HW,2013-08-06 12:24:00,
2013-08-06 08:29:00,68.1,64.1,30.02,SSE,158,0.0,0.0,87,0.00,,,0.00,WUHU216HW,2013-08-06 12:29:00,
2013-08-06 08:34:00,68.1,64.6,30.02,SSE,158,0.0,0.0,88,0.00,,,0.00,WUHU216HW,2013-08-06 12:34:00,
2013-08-06 08:39:00,68.3,64.6,30.02,SSE,158,0.0,0.0,88,0.00,,,0.00,WUHU216HW,2013-08-06 12:39:00,
2013-08-06 08:44:00,68.3,64.6,30.02,SSE,158,0.0,0.0,88,0.00,,,0.00,WUHU216HW,2013-08-06 12:44:00,
2013-08-06 08:49:00,68.5,64.8,30.03,SSE,158,0.0,0.0,88,0.00,,,0.00,WUHU216HW,2013-08-06 12:49:00,
2013-08-06 08:54:00,68.7,64.9,30.03,SSE,158,0.0,0.0,88,0.00,,,0.00,WUHU216HW,2013-08-06 12:54:00,
2013-08-06 08:59:00,68.7,64.9,30.03,SSE,158,0.0,0.0,88,0.00,,,0.00,WUHU216HW,2013-08-06 12:59:00,
2013-08-06 09:04:00,68.7,64.9,30.03,SSE,158,0.0,0.0,88,0.00,,,0.00,WUHU216HW,2013-08-06 13:04:00,
2013-08-06 09:09:00,68.9,65.4,30.03,SSE,158,0.0,0.0,89,0.00,,,0.00,WUHU216HW,2013-08-06 13:09:00,
2013-08-06 09:14:00,69.0,65.6,30.03,SSE,158,0.0,0.0,89,0.00,,,0.00,WUHU216HW,2013-08-06 13:14:00,
2013-08-06 09:19:00,69.0,65.6,30.03,SSE,158,0.0,0.0,89,0.00,,,0.00,WUHU216HW,2013-08-06 13:19:00,
2013-08-06 09:24:00,68.9,65.6,30.03,SSE,158,0.0,0.0,89,0.00,,,0.00,WUHU216HW,2013-08-06 13:24:00,
2013-08-06 09:29:00,68.9,65.4,30.03,SSE,158,0.0,0.0,89,0.00,,,0.00,WUHU216HW,2013-08-06 13:29:00,
2013-08-06 09:34:00,68.9,65.4,30.03,SSE,158,0.0,0.0,89,0.00,,,0.00,WUHU216HW,2013-08-06 13:34:00,
2013-08-06 09:39:00,69.0,65.6,30.03,SSE,158,0.0,0.0,89,0.00,,,0.00,WUHU216HW,2013-08-06 13:39:00,
2013-08-06 09:44:00,69.2,65.8,30.03,SSE,158,0.0,0.0,89,0.00,,,0.00,WUHU216HW,2013-08-06 13:44:00,
2013-08-06 09:49:00,69.6,66.2,30.03,SSE,158,0.0,0.0,89,0.00,,,0.00,WUHU216HW,2013-08-06 13:49:00,
2013-08-06 09:54:00,69.6,66.2,30.04,SSE,158,0.0,0.0,89,0.00,,,0.00,WUHU216HW,2013-08-06 13:54:00,
2013-08-06 09:59:00,69.9,66.9,30.04,SSE,158,0.0,0.0,90,0.00,,,0.00,WUHU216HW,2013-08-06 13:59:00,
2013-08-06 10:04:00,70.3,66.9,30.03,SSE,158,0.0,0.0,89,0.00,,,0.00,WUHU216HW,2013-08-06 14:04:00,
2013-08-06 10:09:00,70.7,67.2,30.03,SSE,158,0.0,0.0,89,0.00,,,0.00,WUHU216HW,2013-08-06 14:09:00,
2013-08-06 10:14:00,70.8,67.4,30.03,SSE,158,0.0,0.0,89,0.00,,,0.00,WUHU216HW,2013-08-06 14:14:00,
2013-08-06 10:19:00,71.2,67.8,30.04,SSE,158,0.0,0.0,89,0.00,,,0.00,WUHU216HW,2013-08-06 14:19:00,
2013-08-06 10:24:00,71.4,68.0,30.03,SSE,158,0.0,0.0,89,0.00,,,0.00,WUHU216HW,2013-08-06 14:24:00,
2013-08-06 10:29:00,71.7,68.0,30.04,SSE,158,0.0,0.0,88,0.00,,,0.00,WUHU216HW,2013-08-06 14:29:00,
2013-08-06 10:34:00,72.1,68.3,30.04,SSE,158,0.0,0.0,88,0.00,,,0.00,WUHU216HW,2013-08-06 14:34:00,
2013-08-06 10:39:00,72.3,68.2,30.04,SSE,158,0.0,0.0,87,0.00,,,0.00,WUHU216HW,2013-08-06 14:39:00,
2013-08-06 10:44:00,72.3,68.2,30.04,SSE,158,0.0,0.0,87,0.00,,,0.00,WUHU216HW,2013-08-06 14:44:00,
2013-08-06 10:49:00,72.3,67.8,30.04,SSE,158,0.0,0.0,86,0.00,,,0.00,WUHU216HW,2013-08-06 14:49:00,
2013-08-06 10:54:00,72.1,67.7,30.05,SSE,158,0.0,0.0,86,0.00,,,0.00,WUHU216HW,2013-08-06 14:54:00,
2013-08-06 10:59:00,72.1,68.0,30.05,SSE,158,0.0,0.0,87,0.00,,,0.00,WUHU216HW,2013-08-06 14:59:00,
2013-08-06 11:04:00,72.1,68.0,30.05,SSE,158,0.0,0.0,87,0.00,,,0.00,WUHU216HW,2013-08-06 15:04:00,
2013-08-06 11:09:00,72.1,68.0,30.05,SSE,158,0.0,0.0,87,0.00,,,0.00,WUHU216HW,2013-08-06 15:09:00,
2013-08-06 11:14:00,72.3,68.2,30.05,SSE,158,0.0,0.0,87,0.00,,,0.00,WUHU216HW,2013-08-06 15:14:00,
2013-08-06 11:19:00,72.3,68.2,30.05,SSE,158,0.0,0.0,87,0.00,,,0.00,WUHU216HW,2013-08-06 15:19:00,
2013-08-06 11:24:00,72.3,68.2,30.05,SSE,158,0.0,0.0,87,0.00,,,0.00,WUHU216HW,2013-08-06 15:24:00,
2013-08-06 11:29:00,72.3,68.2,30.06,SSE,158,0.0,0.0,87,0.00,,,0.00,WUHU216HW,2013-08-06 15:29:00,
2013-08-06 11:34:00,72.5,68.4,30.06,SSE,158,0.0,0.0,87,0.00,,,0.00,WUHU216HW,2013-08-06 15:34:00,
2013-08-06 11:39:00,72.3,68.2,30.06,SSE,158,0.0,0.0,87,0.00,,,0.00,WUHU216HW,2013-08-06 15:39:00,
2013-08-06 11:44:00,72.3,68.5,30.05,SSE,158,0.0,0.0,88,0.00,,,0.00,WUHU216HW,2013-08-06 15:44:00,
2013-08-06 11:49:00,72.1,68.3,30.06,SSE,158,0.0,0.0,88,0.00,,,0.00,WUHU216HW,2013-08-06 15:49:00,
2013-08-06 11:54:00,72.1,68.5,30.05,SSE,158,0.0,0.0,88,0.00,,,0.00,WUHU216HW,2013-08-06 15:54:00,
2013-08-06 11:59:00,72.3,68.5,30.06,SSE,158,0.0,0.0,88,0.02,,,0.00,WUHU216HW,2013-08-06 15:59:00,
2013-08-06 12:04:00,72.6,68.9,30.06,SSE,158,0.0,0.0,88,0.02,,,0.02,WUHU216HW,2013-08-06 16:04:00,
2013-08-06 12:09:00,73.0,69.2,30.06,South,180,0.0,0.0,88,0.02,,,0.02,WUHU216HW,2013-08-06 16:09:00,
2013-08-06 12:14:00,73.0,69.2,30.06,SSE,158,0.0,0.0,88,0.02,,,0.02,WUHU216HW,2013-08-06 16:14:00,
2013-08-06 12:19:00,72.8,69.1,30.06,South,180,0.0,0.0,88,0.02,,,0.02,WUHU216HW,2013-08-06 16:19:00,
2013-08-06 12:24:00,72.8,69.1,30.06,South,180,0.0,0.0,88,0.02,,,0.02,WUHU216HW,2013-08-06 16:24:00,
2013-08-06 12:29:00,72.8,69.1,30.05,South,180,0.0,0.0,88,0.02,,,0.02,WUHU216HW,2013-08-06 16:29:00,
2013-08-06 12:34:00,72.8,68.7,30.05,South,180,0.0,0.0,87,0.02,,,0.02,WUHU216HW,2013-08-06 16:34:00,
2013-08-06 12:39:00,72.8,68.7,30.05,South,180,0.0,0.0,87,0.02,,,0.02,WUHU216HW,2013-08-06 16:39:00,
2013-08-06 12:44:00,72.8,68.4,30.05,South,180,0.0,0.0,86,0.02,,,0.02,WUHU216HW,2013-08-06 16:44:00,
2013-08-06 12:49:00,73.0,68.6,30.05,South,180,0.0,0.0,86,0.02,,,0.02,WUHU216HW,2013-08-06 16:49:00,
2013-08-06 12:54:00,73.2,68.6,30.05,South,180,0.0,0.0,86,0.02,,,0.02,WUHU216HW,2013-08-06 16:54:00,
2013-08-06 12:59:00,73.2,68.7,30.05,South,180,0.0,0.0,86,0.00,,,0.02,WUHU216HW,2013-08-06 16:59:00,
2013-08-06 13:04:00,73.5,68.8,30.05,South,180,0.0,0.0,85,0.00,,,0.02,WUHU216HW,2013-08-06 17:04:00,
2013-08-06 13:09:00,73.5,68.8,30.05,South,180,0.0,0.0,85,0.00,,,0.02,WUHU216HW,2013-08-06 17:09:00,
2013-08-06 13:14:00,73.4,68.6,30.05,South,180,0.0,0.0,85,0.00,,,0.02,WUHU216HW,2013-08-06 17:14:00,
2013-08-06 13:19:00,73.2,68.4,30.05,South,180,0.0,0.0,85,0.00,,,0.02,WUHU216HW,2013-08-06 17:19:00,
2013-08-06 13:24:00,73.5,68.8,30.05,South,180,0.0,0.0,85,0.00,,,0.02,WUHU216HW,2013-08-06 17:24:00,
2013-08-06 13:27:00,73.7,68.9,30.04,South,180,0.0,0.0,85,0.00,,,0.02,WUHU216HW,2013-08-06 17:27:00,
2013-08-06 13:32:00,73.7,68.9,30.05,South,180,0.0,0.0,85,0.00,,,0.02,WUHU216HW,2013-08-06 17:32:00,
2013-08-06 13:37:00,73.7,68.6,30.05,South,180,0.0,0.0,84,0.00,,,0.02,WUHU216HW,2013-08-06 17:37:00,
2013-08-06 13:42:00,73.7,68.9,30.05,South,180,0.0,0.0,85,0.00,,,0.02,WUHU216HW,2013-08-06 17:42:00,
2013-08-06 13:47:00,73.5,68.8,30.05,South,180,0.0,0.0,85,0.00,,,0.02,WUHU216HW,2013-08-06 17:47:00,
2013-08-06 13:52:00,73.5,68.8,30.05,South,180,0.0,0.0,85,0.00,,,0.02,WUHU216HW,2013-08-06 17:52:00,
2013-08-06 13:57:00,73.5,68.8,30.05,South,180,0.0,0.0,85,0.00,,,0.02,WUHU216HW,2013-08-06 17:57:00,
2013-08-06 14:02:00,73.5,68.4,30.04,South,180,0.0,0.0,84,0.00,,,0.02,WUHU216HW,2013-08-06 18:02:00,
2013-08-06 14:07:00,73.7,68.4,30.04,South,180,0.0,0.0,84,0.00,,,0.02,WUHU216HW,2013-08-06 18:07:00,
2013-08-06 14:12:00,73.7,68.3,30.04,South,180,0.0,0.0,83,0.00,,,0.02,WUHU216HW,2013-08-06 18:12:00,
2013-08-06 14:17:00,73.9,68.4,30.04,South,180,0.0,0.0,83,0.00,,,0.02,WUHU216HW,2013-08-06 18:17:00,
2013-08-06 14:22:00,74.3,68.5,30.04,South,180,0.0,0.0,82,0.00,,,0.02,WUHU216HW,2013-08-06 18:22:00,
2013-08-06 14:27:00,74.8,68.7,30.04,SSE,158,0.0,0.0,81,0.00,,,0.02,WUHU216HW,2013-08-06 18:27:00,
2013-08-06 14:32:00,74.8,68.7,30.04,South,180,0.0,0.0,81,0.00,,,0.02,WUHU216HW,2013-08-06 18:32:00,
2013-08-06 14:37:00,74.8,68.8,30.04,South,180,0.0,0.0,81,0.00,,,0.02,WUHU216HW,2013-08-06 18:37:00,
2013-08-06 14:42:00,75.0,68.5,30.04,South,180,0.0,0.0,80,0.00,,,0.02,WUHU216HW,2013-08-06 18:42:00,
2013-08-06 14:47:00,75.3,68.8,30.04,SSE,158,0.0,0.0,80,0.00,,,0.02,WUHU216HW,2013-08-06 18:47:00,
2013-08-06 14:52:00,75.7,68.6,30.03,SSE,158,0.0,0.0,79,0.00,,,0.02,WUHU216HW,2013-08-06 18:52:00,
2013-08-06 14:57:00,75.9,68.9,30.04,SSE,158,0.0,0.0,79,0.00,,,0.02,WUHU216HW,2013-08-06 18:57:00,
2013-08-06 15:02:00,75.9,68.1,30.04,South,180,0.0,0.0,77,0.00,,,0.02,WUHU216HW,2013-08-06 19:02:00,
2013-08-06 15:07:00,75.9,67.8,30.04,South,180,0.0,0.0,76,0.00,,,0.02,WUHU216HW,2013-08-06 19:07:00,
2013-08-06 15:12:00,75.9,67.9,30.04,South,180,0.0,0.0,76,0.00,,,0.02,WUHU216HW,2013-08-06 19:12:00,
2013-08-06 15:17:00,76.1,67.9,30.03,South,180,0.0,0.0,76,0.00,,,0.02,WUHU216HW,2013-08-06 19:17:00,
2013-08-06 15:22:00,76.4,67.9,30.03,South,180,0.0,0.0,75,0.00,,,0.02,WUHU216HW,2013-08-06 19:22:00,
2013-08-06 15:27:00,77.3,68.3,30.03,South,180,0.0,0.0,74,0.00,,,0.02,WUHU216HW,2013-08-06 19:27:00,
2013-08-06 15:32:00,78.9,69.9,30.03,South,180,0.0,0.0,74,0.00,,,0.02,WUHU216HW,2013-08-06 19:32:00,
2013-08-06 15:37:00,80.4,70.1,30.03,South,180,0.0,0.0,71,0.00,,,0.02,WUHU216HW,2013-08-06 19:37:00,
2013-08-06 15:42:00,81.1,70.0,30.03,South,180,0.0,0.0,69,0.00,,,0.02,WUHU216HW,2013-08-06 19:42:00,
2013-08-06 15:47:00,81.1,69.5,30.03,South,180,0.0,0.0,68,0.00,,,0.02,WUHU216HW,2013-08-06 19:47:00,
2013-08-06 15:52:00,80.7,69.2,30.03,South,180,0.0,0.0,68,0.00,,,0.02,WUHU216HW,2013-08-06 19:52:00,
2013-08-06 15:57:00,80.6,69.0,30.03,South,180,0.0,0.0,68,0.00,,,0.02,WUHU216HW,2013-08-06 19:57:00,
2013-08-06 16:02:00,80.4,68.9,30.03,South,180,0.0,0.0,68,0.00,,,0.02,WUHU216HW,2013-08-06 20:02:00,
2013-08-06 16:07:00,80.0,68.5,30.03,South,180,0.0,0.0,68,0.00,,,0.02,WUHU216HW,2013-08-06 20:07:00,
2013-08-06 16:12:00,79.8,68.8,30.03,South,180,0.0,0.0,69,0.00,,,0.02,WUHU216HW,2013-08-06 20:12:00,
2013-08-06 16:17:00,80.0,68.5,30.03,South,180,0.0,0.0,68,0.00,,,0.02,WUHU216HW,2013-08-06 20:17:00,
2013-08-06 16:22:00,80.4,68.4,30.03,South,180,0.0,0.0,67,0.00,,,0.02,WUHU216HW,2013-08-06 20:22:00,
2013-08-06 16:27:00,80.4,68.4,30.02,South,180,0.0,0.0,67,0.00,,,0.02,WUHU216HW,2013-08-06 20:27:00,
2013-08-06 16:32:00,80.2,68.2,30.02,South,180,0.0,0.0,67,0.00,,,0.02,WUHU216HW,2013-08-06 20:32:00,
2013-08-06 16:37:00,80.2,68.4,30.02,South,180,0.0,0.0,67,0.00,,,0.02,WUHU216HW,2013-08-06 20:37:00,
2013-08-06 16:42:00,80.4,68.9,30.02,South,180,0.0,0.0,68,0.00,,,0.02,WUHU216HW,2013-08-06 20:42:00,
2013-08-06 16:47:00,80.4,68.4,30.02,South,180,0.0,0.0,67,0.00,,,0.02,WUHU216HW,2013-08-06 20:47:00,
2013-08-06 16:52:00,80.4,68.4,30.02,South,180,0.0,0.0,67,0.00,,,0.02,WUHU216HW,2013-08-06 20:52:00,
2013-08-06 16:57:00,80.4,68.9,30.01,South,180,0.0,0.0,68,0.00,,,0.02,WUHU216HW,2013-08-06 20:57:00,
2013-08-06 17:02:00,80.4,68.9,30.01,South,180,0.0,0.0,68,0.00,,,0.02,WUHU216HW,2013-08-06 21:02:00,
2013-08-06 17:07:00,80.7,69.2,30.02,South,180,0.0,0.0,68,0.00,,,0.02,WUHU216HW,2013-08-06 21:07:00,
2013-08-06 17:12:00,80.6,69.0,30.02,South,180,0.0,0.0,68,0.00,,,0.02,WUHU216HW,2013-08-06 21:12:00,
2013-08-06 17:17:00,80.6,69.2,30.02,South,180,0.0,0.0,68,0.00,,,0.02,WUHU216HW,2013-08-06 21:17:00,
2013-08-06 17:22:00,80.6,69.0,30.01,South,180,0.0,0.0,68,0.00,,,0.02,WUHU216HW,2013-08-06 21:22:00,
2013-08-06 17:27:00,80.4,68.9,30.01,South,180,0.0,0.0,68,0.00,,,0.02,WUHU216HW,2013-08-06 21:27:00,
2013-08-06 17:32:00,80.2,69.1,30.01,South,180,0.0,0.0,69,0.00,,,0.02,WUHU216HW,2013-08-06 21:32:00,
2013-08-06 17:37:00,79.8,68.8,30.02,South,180,0.0,0.0,69,0.00,,,0.02,WUHU216HW,2013-08-06 21:37:00,
2013-08-06 17:42:00,79.8,69.2,30.01,South,180,0.0,0.0,70,0.00,,,0.02,WUHU216HW,2013-08-06 21:42:00,
2013-08-06 17:47:00,79.8,69.2,30.01,South,180,0.0,0.0,70,0.00,,,0.02,WUHU216HW,2013-08-06 21:47:00,
2013-08-06 17:52:00,79.8,69.2,30.01,South,180,0.0,0.0,70,0.00,,,0.02,WUHU216HW,2013-08-06 21:52:00,
2013-08-06 17:57:00,79.7,68.8,30.01,South,180,0.0,0.0,69,0.00,,,0.02,WUHU216HW,2013-08-06 21:57:00,
2013-08-06 18:02:00,79.5,68.4,30.00,South,180,0.0,0.0,69,0.00,,,0.02,WUHU216HW,2013-08-06 22:02:00,
2013-08-06 18:07:00,79.3,68.7,30.01,South,180,0.0,0.0,70,0.00,,,0.02,WUHU216HW,2013-08-06 22:07:00,
2013-08-06 18:12:00,79.3,68.2,30.01,South,180,0.0,0.0,69,0.00,,,0.02,WUHU216HW,2013-08-06 22:12:00,
2013-08-06 18:17:00,78.9,68.0,30.01,South,180,0.0,0.0,69,0.00,,,0.02,WUHU216HW,2013-08-06 22:17:00,
2013-08-06 18:22:00,78.9,68.1,30.01,South,180,0.0,0.0,70,0.00,,,0.02,WUHU216HW,2013-08-06 22:22:00,
2013-08-06 18:27:00,78.6,68.0,30.01,South,180,0.0,0.0,70,0.00,,,0.02,WUHU216HW,2013-08-06 22:27:00,
2013-08-06 18:32:00,78.9,68.7,30.02,South,180,0.0,0.0,71,0.00,,,0.02,WUHU216HW,2013-08-06 22:32:00,
2013-08-06 18:37:00,79.1,68.9,30.01,South,180,0.0,0.0,71,0.00,,,0.02,WUHU216HW,2013-08-06 22:37:00,
2013-08-06 18:42:00,79.1,68.9,30.02,South,180,0.0,0.0,71,0.00,,,0.02,WUHU216HW,2013-08-06 22:42:00,
2013-08-06 18:47:00,78.9,68.7,30.02,South,180,0.0,0.0,71,0.00,,,0.02,WUHU216HW,2013-08-06 22:47:00,
2013-08-06 18:52:00,78.6,68.3,30.02,South,180,0.0,0.0,71,0.00,,,0.02,WUHU216HW,2013-08-06 22:52:00,
2013-08-06 18:57:00,78.4,68.2,30.02,South,180,0.0,0.0,71,0.00,,,0.02,WUHU216HW,2013-08-06 22:57:00,
2013-08-06 19:02:00,78.0,68.3,30.03,South,180,0.0,0.0,72,0.00,,,0.02,WUHU216HW,2013-08-06 23:02:00,
2013-08-06 19:07:00,77.7,68.3,30.02,South,180,0.0,0.0,73,0.00,,,0.02,WUHU216HW,2013-08-06 23:07:00,
2013-08-06 19:12:00,77.5,68.5,30.02,South,180,0.0,0.0,74,0.00,,,0.02,WUHU216HW,2013-08-06 23:12:00,
2013-08-06 19:17:00,77.3,68.7,30.02,South,180,0.0,0.0,75,0.00,,,0.02,WUHU216HW,2013-08-06 23:17:00,
2013-08-06 19:22:00,77.0,68.9,30.02,South,180,0.0,0.0,76,0.00,,,0.02,WUHU216HW,2013-08-06 23:22:00,
2013-08-06 19:27:00,76.8,68.6,30.02,South,180,0.0,0.0,76,0.00,,,0.02,WUHU216HW,2013-08-06 23:27:00,
2013-08-06 19:32:00,76.6,68.8,30.02,South,180,0.0,0.0,77,0.00,,,0.02,WUHU216HW,2013-08-06 23:32:00,
2013-08-06 19:37:00,76.4,68.7,30.01,South,180,0.0,0.0,77,0.00,,,0.02,WUHU216HW,2013-08-06 23:37:00,
2013-08-06 19:42:00,76.2,68.5,30.02,South,180,0.0,0.0,77,0.00,,,0.02,WUHU216HW,2013-08-06 23:42:00,
2013-08-06 19:47:00,76.2,68.7,30.01,South,180,0.0,0.0,78,0.00,,,0.02,WUHU216HW,2013-08-06 23:47:00,
2013-08-06 19:52:00,76.1,68.7,30.01,South,180,0.0,0.0,78,0.00,,,0.02,WUHU216HW,2013-08-06 23:52:00,
2013-08-06 19:57:00,75.9,68.5,30.02,South,180,0.0,0.0,78,0.00,,,0.02,WUHU216HW,2013-08-06 23:57:00,
2013-08-06 20:02:00,75.7,68.9,30.02,South,180,0.0,0.0,79,0.00,,,0.02,WUHU216HW,2013-08-07 00:02:00,
2013-08-06 20:07:00,75.7,68.8,30.02,South,180,0.0,0.0,79,0.00,,,0.02,WUHU216HW,2013-08-07 00:07:00,
2013-08-06 20:12:00,75.3,68.8,30.02,South,180,0.0,0.0,80,0.00,,,0.02,WUHU216HW,2013-08-07 00:12:00,
2013-08-06 20:17:00,75.2,68.7,30.02,South,180,0.0,0.0,80,0.00,,,0.02,WUHU216HW,2013-08-07 00:17:00,
2013-08-06 20:22:00,74.8,68.7,30.01,South,180,0.0,0.0,81,0.00,,,0.02,WUHU216HW,2013-08-07 00:22:00,
2013-08-06 20:27:00,74.4,68.3,30.02,South,180,0.0,0.0,81,0.00,,,0.02,WUHU216HW,2013-08-07 00:27:00,
2013-08-06 20:32:00,74.3,68.1,30.02,South,180,0.0,0.0,81,0.00,,,0.02,WUHU216HW,2013-08-07 00:32:00,
2013-08-06 20:37:00,74.1,68.3,30.02,South,180,0.0,0.0,82,0.00,,,0.02,WUHU216HW,2013-08-07 00:37:00,
2013-08-06 20:42:00,73.9,68.1,30.02,South,180,0.0,0.0,82,0.00,,,0.02,WUHU216HW,2013-08-07 00:42:00,
2013-08-06 20:47:00,73.7,67.9,30.01,South,180,0.0,0.0,82,0.00,,,0.02,WUHU216HW,2013-08-07 00:47:00,
2013-08-06 20:52:00,73.2,67.4,30.02,South,180,0.0,0.0,82,0.00,,,0.02,WUHU216HW,2013-08-07 00:52:00,
2013-08-06 20:57:00,73.0,67.5,30.02,South,180,0.0,0.0,83,0.00,,,0.02,WUHU216HW,2013-08-07 00:57:00,
2013-08-06 21:02:00,72.6,67.5,30.02,South,180,0.0,0.0,84,0.00,,,0.02,WUHU216HW,2013-08-07 01:02:00,
2013-08-06 21:07:00,72.3,67.2,30.02,South,180,0.0,0.0,84,0.00,,,0.02,WUHU216HW,2013-08-07 01:07:00,
2013-08-06 21:12:00,72.1,67.0,30.02,South,180,0.0,0.0,84,0.00,,,0.02,WUHU216HW,2013-08-07 01:12:00,
2013-08-06 21:17:00,72.1,67.0,30.02,South,180,0.0,0.0,84,0.00,,,0.02,WUHU216HW,2013-08-07 01:17:00,
2013-08-06 21:22:00,71.9,67.1,30.02,South,180,0.0,0.0,85,0.00,,,0.02,WUHU216HW,2013-08-07 01:22:00,
2013-08-06 21:27:00,71.7,67.0,30.03,South,180,0.0,0.0,85,0.00,,,0.02,WUHU216HW,2013-08-07 01:27:00,
2013-08-06 21:32:00,71.7,67.0,30.03,South,180,0.0,0.0,85,0.00,,,0.02,WUHU216HW,2013-08-07 01:32:00,
2013-08-06 21:37:00,71.7,67.0,30.03,South,180,0.0,0.0,85,0.00,,,0.02,WUHU216HW,2013-08-07 01:37:00,
2013-08-06 21:42:00,71.7,67.3,30.03,South,180,0.0,0.0,86,0.00,,,0.02,WUHU216HW,2013-08-07 01:42:00,
2013-08-06 21:47:00,71.7,67.3,30.02,South,180,0.0,0.0,86,0.00,,,0.02,WUHU216HW,2013-08-07 01:47:00,
2013-08-06 21:52:00,71.9,67.5,30.02,South,180,0.0,0.0,86,0.00,,,0.02,WUHU216HW,2013-08-07 01:52:00,
2013-08-06 21:57:00,71.9,67.5,30.03,South,180,0.0,0.0,86,0.00,,,0.02,WUHU216HW,2013-08-07 01:57:00,
2013-08-06 22:02:00,71.9,67.5,30.03,South,180,0.0,0.0,86,0.00,,,0.02,WUHU216HW,2013-08-07 02:02:00,
2013-08-06 22:07:00,71.7,67.3,30.03,South,180,0.0,0.0,86,0.00,,,0.02,WUHU216HW,2013-08-07 02:07:00,
2013-08-06 22:12:00,71.7,67.0,30.03,South,180,0.0,0.0,85,0.00,,,0.02,WUHU216HW,2013-08-07 02:12:00,
2013-08-06 22:17:00,71.4,66.9,30.03,South,180,0.0,0.0,86,0.00,,,0.02,WUHU216HW,2013-08-07 02:17:00,
2013-08-06 22:22:00,71.4,66.9,30.03,South,180,0.0,0.0,86,0.00,,,0.02,WUHU216HW,2013-08-07 02:22:00,
2013-08-06 22:27:00,71.2,66.8,30.03,South,180,0.0,0.0,86,0.00,,,0.02,WUHU216HW,2013-08-07 02:27:00,
2013-08-06 22:32:00,71.2,66.8,30.03,South,180,0.0,0.0,86,0.00,,,0.02,WUHU216HW,2013-08-07 02:32:00,
2013-08-06 22:37:00,71.2,67.1,30.03,South,180,0.0,0.0,87,0.00,,,0.02,WUHU216HW,2013-08-07 02:37:00,
2013-08-06 22:42:00,71.2,67.1,30.04,South,180,0.0,0.0,87,0.00,,,0.02,WUHU216HW,2013-08-07 02:42:00,
2013-08-06 22:47:00,71.2,67.1,30.03,South,180,0.0,0.0,87,0.00,,,0.02,WUHU216HW,2013-08-07 02:47:00,
2013-08-06 22:52:00,71.2,67.1,30.03,South,180,0.0,0.0,87,0.00,,,0.02,WUHU216HW,2013-08-07 02:52:00,
2013-08-06 22:57:00,71.4,67.3,30.03,South,180,0.0,0.0,87,0.00,,,0.02,WUHU216HW,2013-08-07 02:57:00,
2013-08-06 23:02:00,71.4,67.3,30.03,South,180,0.0,0.0,87,0.00,,,0.02,WUHU216HW,2013-08-07 03:02:00,
2013-08-06 23:07:00,71.4,67.3,30.03,South,180,0.0,0.0,87,0.00,,,0.02,WUHU216HW,2013-08-07 03:07:00,
2013-08-06 23:12:00,71.4,67.3,30.04,South,180,0.0,0.0,87,0.00,,,0.02,WUHU216HW,2013-08-07 03:12:00,
2013-08-06 23:17:00,71.4,67.3,30.04,South,180,0.0,0.0,87,0.00,,,0.02,WUHU216HW,2013-08-07 03:17:00,
2013-08-06 23:22:00,71.4,67.3,30.04,South,180,0.0,0.0,87,0.00,,,0.02,WUHU216HW,2013-08-07 03:22:00,
2013-08-06 23:27:00,71.4,67.3,30.04,South,180,0.0,0.0,87,0.00,,,0.02,WUHU216HW,2013-08-07 03:27:00,
2013-08-06 23:32:00,71.4,67.3,30.04,South,180,0.0,0.0,87,0.00,,,0.02,WUHU216HW,2013-08-07 03:32:00,
2013-08-06 23:37:00,71.4,67.3,30.04,South,180,0.0,0.0,87,0.00,,,0.02,WUHU216HW,2013-08-07 03:37:00,
2013-08-06 23:42:00,71.4,67.3,30.04,South,180,0.0,0.0,87,0.00,,,0.02,WUHU216HW,2013-08-07 03:42:00,
2013-08-06 23:47:00,71.4,67.3,30.04,South,180,0.0,0.0,87,0.00,,,0.02,WUHU216HW,2013-08-07 03:47:00,
2013-08-06 23:52:00,71.4,67.3,30.04,South,180,0.0,0.0,87,0.00,,,0.02,WUHU216HW,2013-08-07 03:52:00,
2013-08-06 23:57:00,71.4,67.3,30.04,South,180,0.0,0.0,87,0.00,,,0.02,WUHU216HW,2013-08-07 03:57:00,